Time;durP1;ratioP1;P1;durP2;ratioP2;P2;SDS_P1;SDS_P2;PMS_P1;PMS_P2;Temp;Humidity;BMP_temperature;BMP_pressure;BME280_temperature;BME280_humidity;BME280_pressure;Samples;Min_cycle;Max_cycle;Signal;HPM_P1;HPM_P2
2023/08/11 00:00:09;;;;;;;5.90;2.83;;;;;;;21.55;100.00;96711.63;5074364;28;20024;-83
2023/08/11 00:02:40;;;;;;;8.83;3.77;;;;;;;21.35;100.00;96711.75;5067528;28;20021;-83
2023/08/11 00:05:07;;;;;;;4.90;3.27;;;;;;;21.28;100.00;96705.59;5070481;28;20031;-83
2023/08/11 00:07:35;;;;;;;12.77;3.70;;;;;;;20.98;100.00;96713.38;5056212;28;20024;-83
2023/08/11 00:10:02;;;;;;;5.37;3.30;;;;;;;21.04;100.00;96720.56;5071559;28;20031;-83
2023/08/11 00:12:28;;;;;;;7.77;3.30;;;;;;;21.09;100.00;96709.22;5066317;28;20095;-83
2023/08/11 00:14:53;;;;;;;6.17;3.13;;;;;;;21.28;100.00;96708.28;5048295;28;20028;-83
2023/08/11 00:17:19;;;;;;;10.93;3.80;;;;;;;21.30;100.00;96710.75;5055656;28;20081;-83
2023/08/11 00:19:45;;;;;;;6.93;3.60;;;;;;;21.42;100.00;96704.50;5051439;28;20394;-83
2023/08/11 00:22:11;;;;;;;8.10;3.80;;;;;;;21.29;100.00;96709.91;5053297;28;20090;-83
2023/08/11 00:24:37;;;;;;;8.23;3.97;;;;;;;21.26;100.00;96710.38;5050666;28;20035;-82
2023/08/11 00:27:03;;;;;;;5.87;3.67;;;;;;;21.32;100.00;96716.69;5071067;28;20024;-83
2023/08/11 00:29:31;;;;;;;8.60;3.90;;;;;;;21.26;100.00;96717.53;5073271;28;20386;-83
2023/08/11 00:31:56;;;;;;;6.47;4.23;;;;;;;21.28;100.00;96723.53;5063613;28;20016;-83
2023/08/11 00:34:23;;;;;;;7.93;4.60;;;;;;;21.34;100.00;96719.97;5071781;28;20889;-83
2023/08/11 00:36:48;;;;;;;9.40;4.40;;;;;;;21.36;100.00;96716.09;5055498;28;20024;-83
2023/08/11 00:39:15;;;;;;;7.53;5.27;;;;;;;21.37;100.00;96715.06;5072274;28;20040;-83
2023/08/11 00:41:41;;;;;;;9.53;5.50;;;;;;;21.10;100.00;96716.22;5054555;28;20075;-83
2023/08/11 00:44:07;;;;;;;8.50;5.43;;;;;;;20.88;100.00;96713.84;5055554;28;20549;-83
2023/08/11 00:46:32;;;;;;;7.57;4.87;;;;;;;20.95;100.00;96714.63;5055908;28;20069;-83
2023/08/11 00:49:00;;;;;;;9.63;5.30;;;;;;;20.99;100.00;96715.00;5055653;28;20020;-82
2023/08/11 00:51:26;;;;;;;9.00;5.33;;;;;;;;;;5052008;28;20035;-83
2023/08/11 00:53:56;;;;;;;7.83;5.13;;;;;;;21.00;100.00;96710.50;5053038;28;20020;-83
2023/08/11 00:56:22;;;;;;;8.30;5.40;;;;;;;20.78;100.00;96701.97;5059796;28;20112;-83
2023/08/11 00:58:50;;;;;;;9.40;5.43;;;;;;;20.82;100.00;96698.63;5062904;28;20028;-83
2023/08/11 01:01:16;;;;;;;8.00;5.33;;;;;;;20.90;100.00;96706.44;5047970;28;20074;-83
2023/08/11 01:03:45;;;;;;;11.00;5.30;;;;;;;21.02;100.00;96703.06;5053381;28;20024;-83
2023/08/11 01:06:10;;;;;;;7.60;4.60;;;;;;;;;;5067217;28;20100;-83
2023/08/11 01:08:58;;;;;;;6.60;4.13;;;;;;;20.97;100.00;96703.72;5049163;28;20609;-83
2023/08/11 01:11:41;;;;;;;7.03;4.70;;;;;;;21.14;100.00;96699.50;5061485;28;20024;-83
2023/08/11 01:14:18;;;;;;;7.32;4.45;;;;;;;21.13;100.00;96699.75;5061461;28;20112;-83
2023/08/11 01:16:47;;;;;;;7.10;4.30;;;;;;;21.01;100.00;96706.78;5063403;28;20419;-83
2023/08/11 01:19:23;;;;;;;6.80;4.27;;;;;;;20.39;100.00;96701.88;5062777;28;20028;-83
2023/08/11 01:21:53;;;;;;;7.70;3.90;;;;;;;20.65;100.00;96708.97;5053184;28;20037;-83
2023/08/11 01:24:19;;;;;;;7.37;4.40;;;;;;;20.42;100.00;96709.47;5054688;28;20035;-83
2023/08/11 01:26:46;;;;;;;6.33;4.30;;;;;;;20.25;100.00;96714.44;5066730;28;20017;-83
2023/08/11 01:29:13;;;;;;;7.57;4.33;;;;;;;20.12;100.00;96700.25;5054464;28;20028;-83
2023/08/11 01:31:38;;;;;;;6.63;4.30;;;;;;;20.23;100.00;96705.78;5051396;28;20480;-83
2023/08/11 01:34:04;;;;;;;7.60;4.83;;;;;;;20.15;100.00;96705.19;5070778;28;20024;-83
2023/08/11 01:36:30;;;;;;;7.40;4.67;;;;;;;19.95;100.00;96707.88;5066588;28;20048;-83
2023/08/11 01:38:55;;;;;;;7.27;4.67;;;;;;;20.03;100.00;96715.69;5071052;28;20021;-83
2023/08/11 01:41:21;;;;;;;8.47;4.80;;;;;;;20.29;100.00;96708.66;5054259;28;20021;-83
2023/08/11 01:43:48;;;;;;;6.73;4.37;;;;;;;20.18;100.00;96708.25;5054387;28;20502;-83
2023/08/11 01:46:14;;;;;;;9.23;5.50;;;;;;;19.89;100.00;96720.22;5051945;28;20108;-83
2023/08/11 01:48:40;;;;;;;9.00;4.90;;;;;;;20.05;100.00;96718.13;5054336;28;20047;-83
2023/08/11 01:51:07;;;;;;;9.30;4.77;;;;;;;20.30;100.00;96718.31;5071080;28;20085;-83
2023/08/11 01:53:33;;;;;;;9.47;4.23;;;;;;;20.00;100.00;96719.59;5050432;28;20021;-83
2023/08/11 01:56:02;;;;;;;7.47;5.00;;;;;;;19.96;100.00;96720.22;5067225;28;20021;-83
2023/08/11 01:58:28;;;;;;;9.30;5.00;;;;;;;19.93;100.00;96717.94;5040467;28;20016;-83
2023/08/11 02:00:54;;;;;;;8.33;4.67;;;;;;;19.46;100.00;96727.75;5065875;28;20032;-83
2023/08/11 02:03:19;;;;;;;6.97;4.53;;;;;;;19.42;100.00;96730.00;5045407;28;20055;-83
2023/08/11 02:05:45;;;;;;;7.20;3.97;;;;;;;19.40;100.00;96720.56;5060911;28;20036;-83
2023/08/11 02:08:11;;;;;;;6.77;4.10;;;;;;;19.63;100.00;96722.84;5054450;28;20083;-83
2023/08/11 02:10:36;;;;;;;8.00;3.97;;;;;;;19.63;100.00;96725.50;5053040;28;20081;-82
2023/08/11 02:13:02;;;;;;;7.73;3.30;;;;;;;19.69;100.00;96716.72;5060537;28;20039;-83
2023/08/11 02:15:28;;;;;;;7.17;4.13;;;;;;;19.64;100.00;96716.50;5070614;28;20099;-83
2023/08/11 02:17:53;;;;;;;7.60;3.73;;;;;;;19.42;100.00;96713.19;5054275;28;20012;-83
2023/08/11 02:22:45;;;;;;;5.90;3.73;;;;;;;19.67;100.00;96716.09;5071089;28;20081;-83
2023/08/11 02:25:10;;;;;;;8.53;3.80;;;;;;;19.28;100.00;96713.16;5070607;28;20518;-83
2023/08/11 02:27:49;;;;;;;10.33;4.83;;;;;;;19.24;100.00;96711.09;5070850;28;20029;-83
2023/08/11 02:30:14;;;;;;;6.53;3.70;;;;;;;19.28;100.00;96707.84;5053791;28;20024;-83
2023/08/11 02:32:41;;;;;;;6.60;3.63;;;;;;;19.61;100.00;96706.22;5070295;28;20020;-82
2023/08/11 02:35:07;;;;;;;6.10;3.53;;;;;;;19.43;100.00;96709.50;5069082;28;20065;-83
2023/08/11 02:37:33;;;;;;;7.17;3.90;;;;;;;19.93;100.00;96702.75;5070745;28;20021;-83
2023/08/11 02:39:59;;;;;;;6.30;3.60;;;;;;;19.79;100.00;96709.13;5043201;28;20032;-83
2023/08/11 02:42:25;;;;;;;9.13;3.70;;;;;;;19.63;100.00;96704.16;5070569;28;20467;-83
2023/08/11 02:44:51;;;;;;;6.27;3.77;;;;;;;19.46;100.00;96698.41;5054057;28;20434;-83
2023/08/11 02:47:17;;;;;;;7.43;3.63;;;;;;;19.40;100.00;96699.22;5052612;28;20205;-83
2023/08/11 02:49:43;;;;;;;6.60;4.00;;;;;;;19.62;100.00;96705.22;5050395;28;20111;-83
2023/08/11 02:52:09;;;;;;;6.37;4.00;;;;;;;19.67;100.00;96694.75;5056987;28;20025;-83
2023/08/11 02:54:35;;;;;;;6.43;4.40;;;;;;;19.72;100.00;96694.97;5051288;28;20021;-83
2023/08/11 02:57:07;;;;;;;6.03;4.10;;;;;;;19.67;100.00;96695.56;5033867;28;20028;-83
2023/08/11 02:59:33;;;;;;;6.38;4.03;;;;;;;19.62;100.00;96692.69;5055884;28;20115;-83
2023/08/11 03:01:59;;;;;;;7.23;4.40;;;;;;;19.41;100.00;96691.00;5055710;28;20032;-83
2023/08/11 03:04:24;;;;;;;7.37;4.20;;;;;;;19.48;100.00;96694.53;5057606;28;20029;-83
2023/08/11 03:06:50;;;;;;;6.73;3.83;;;;;;;19.27;100.00;96690.16;5069462;28;20025;-83
2023/08/11 03:09:16;;;;;;;6.70;4.53;;;;;;;19.22;100.00;96691.81;5072704;28;20078;-83
2023/08/11 03:11:42;;;;;;;8.40;4.17;;;;;;;19.20;100.00;96693.84;5052796;28;20021;-83
2023/08/11 03:14:07;;;;;;;7.40;4.17;;;;;;;19.03;100.00;96693.41;5070303;28;20439;-82
2023/08/11 03:16:33;;;;;;;7.00;4.10;;;;;;;19.21;100.00;96698.16;5048174;28;20023;-83
2023/08/11 03:19:00;;;;;;;7.90;4.63;;;;;;;19.21;100.00;96700.81;5057413;28;20489;-83
2023/08/11 03:21:26;;;;;;;6.30;4.00;;;;;;;19.15;100.00;96701.63;5057565;28;20047;-83
2023/08/11 03:23:52;;;;;;;6.13;3.90;;;;;;;18.99;100.00;96698.31;5074526;28;20455;-83
2023/08/11 03:26:19;;;;;;;6.10;4.13;;;;;;;19.07;100.00;96706.13;5056285;28;21222;-83
2023/08/11 03:28:45;;;;;;;6.17;4.07;;;;;;;18.78;100.00;96704.59;5055194;28;20021;-83
2023/08/11 03:31:12;;;;;;;6.50;4.23;;;;;;;19.23;100.00;96707.59;5055820;28;20048;-84
2023/08/11 03:33:40;;;;;;;7.70;3.70;;;;;;;19.60;100.00;96701.91;5057175;28;20025;-83
2023/08/11 03:36:10;;;;;;;8.67;4.40;;;;;;;19.45;100.00;96708.25;5055506;28;20127;-83
2023/08/11 03:38:36;;;;;;;7.63;4.07;;;;;;;19.54;100.00;96699.00;5071770;28;20104;-83
2023/08/11 03:41:02;;;;;;;9.17;3.73;;;;;;;19.53;100.00;96700.06;5059551;28;20129;-83
2023/08/11 03:43:27;;;;;;;6.80;3.93;;;;;;;19.50;100.00;96705.78;5073816;28;20017;-83
2023/08/11 03:45:53;;;;;;;6.80;4.10;;;;;;;19.33;100.00;96709.88;5054333;28;20025;-82
2023/08/11 03:48:20;;;;;;;6.23;4.00;;;;;;;19.51;100.00;96707.44;5056082;28;20020;-83
2023/08/11 03:50:46;;;;;;;6.67;4.23;;;;;;;19.70;100.00;96705.84;5072211;28;20024;-83
2023/08/11 03:53:13;;;;;;;8.00;4.10;;;;;;;19.62;100.00;96706.03;5053483;28;20094;-83
2023/08/11 03:55:42;;;;;;;7.13;4.17;;;;;;;19.68;100.00;96707.88;5070368;28;20059;-83
2023/08/11 03:58:07;;;;;;;8.30;4.27;;;;;;;19.50;100.00;96704.97;5070681;28;20022;-83
2023/08/11 04:00:33;;;;;;;6.60;3.73;;;;;;;19.53;100.00;96713.38;5056104;28;20032;-83
2023/08/11 04:03:08;;;;;;;5.93;3.22;;;;;;;19.62;100.00;96710.53;5073013;28;20017;-83
2023/08/11 04:05:34;;;;;;;5.73;3.43;;;;;;;19.42;100.00;96721.19;5048807;28;20032;-83
2023/08/11 04:07:59;;;;;;;7.60;4.00;;;;;;;19.17;100.00;96715.59;5053735;28;20625;-83
2023/08/11 04:10:25;;;;;;;6.67;4.13;;;;;;;19.28;100.00;96720.31;5061742;28;20055;-83
2023/08/11 04:12:51;;;;;;;6.87;3.90;;;;;;;19.25;100.00;96715.41;5052756;28;20448;-83
2023/08/11 04:15:16;;;;;;;8.07;3.77;;;;;;;19.25;100.00;96713.56;5072179;28;20737;-83
2023/08/11 04:17:42;;;;;;;6.83;3.77;;;;;;;19.58;100.00;96719.94;5056640;28;20078;-83
2023/08/11 04:20:14;;;;;;;8.90;4.00;;;;;;;19.65;100.00;96712.81;5056272;28;20395;-83
2023/08/11 04:22:40;;;;;;;5.70;3.50;;;;;;;19.32;100.00;96713.56;5056101;28;20031;-83
2023/08/11 04:25:09;;;;;;;7.87;3.50;;;;;;;19.42;100.00;96718.53;5056030;28;20032;-83
2023/08/11 04:27:37;;;;;;;5.63;3.83;;;;;;;19.46;100.00;96715.22;5053737;28;20467;-83
2023/08/11 04:30:03;;;;;;;5.73;3.53;;;;;;;19.61;100.00;96717.69;5050157;28;20040;-83
2023/08/11 04:32:31;;;;;;;6.80;3.83;;;;;;;19.36;100.00;96714.00;5055684;28;20024;-83
2023/08/11 04:34:58;;;;;;;8.47;4.07;;;;;;;19.48;100.00;96705.19;5051659;28;20027;-83
2023/08/11 04:37:25;;;;;;;6.17;4.10;;;;;;;19.84;100.00;96705.84;5055417;28;20458;-83
2023/08/11 04:39:51;;;;;;;6.73;4.10;;;;;;;19.58;100.00;96712.78;5052165;28;20040;-83
2023/08/11 04:42:16;;;;;;;6.83;3.80;;;;;;;19.47;100.00;96716.88;5072415;28;20020;-83
2023/08/11 04:44:42;;;;;;;7.33;4.43;;;;;;;19.98;100.00;96718.97;5072546;28;20035;-83
2023/08/11 04:47:08;;;;;;;5.83;3.43;;;;;;;20.06;100.00;96719.81;5058145;28;20024;-83
2023/08/11 04:49:35;;;;;;;5.70;3.43;;;;;;;19.94;100.00;96720.41;5052899;28;20035;-83
2023/08/11 04:52:05;;;;;;;5.53;3.77;;;;;;;20.15;100.00;96708.66;5067670;28;20485;-83
2023/08/11 04:54:30;;;;;;;29.90;13.87;;;;;;;20.16;100.00;96713.00;5051789;28;20028;-83
2023/08/11 04:56:56;;;;;;;38.23;17.30;;;;;;;20.40;100.00;96716.03;5067628;28;20379;-84
2023/08/11 04:59:22;;;;;;;17.17;8.80;;;;;;;20.27;100.00;96718.72;5055053;28;20018;-84
2023/08/11 05:01:48;;;;;;;5.93;3.67;;;;;;;20.19;100.00;96719.78;5057748;28;20514;-83
2023/08/11 05:04:14;;;;;;;6.20;3.57;;;;;;;20.44;100.00;96720.75;5061530;28;20025;-82
2023/08/11 05:06:39;;;;;;;7.10;3.97;;;;;;;20.53;100.00;96723.22;5063482;28;20031;-83
2023/08/11 05:09:05;;;;;;;6.20;3.60;;;;;;;20.78;100.00;96720.66;5070942;28;20032;-83
2023/08/11 05:11:31;;;;;;;5.67;3.53;;;;;;;20.82;100.00;96714.69;5071557;28;20082;-83
2023/08/11 05:13:56;;;;;;;10.17;4.07;;;;;;;21.37;100.00;96717.72;5054885;28;20016;-83
2023/08/11 05:16:24;;;;;;;7.03;4.03;;;;;;;21.30;100.00;96726.81;5054760;28;20662;-83
2023/08/11 05:18:49;;;;;;;7.47;4.60;;;;;;;21.08;100.00;96718.28;5053382;28;20106;-83
2023/08/11 05:21:17;;;;;;;6.40;4.23;;;;;;;20.47;100.00;96728.34;5062596;28;20032;-85
2023/08/11 05:23:44;;;;;;;6.63;4.33;;;;;;;20.37;100.00;96724.47;5069513;28;20031;-86
2023/08/11 05:26:12;;;;;;;5.80;3.53;;;;;;;20.73;100.00;96723.16;5052344;28;20115;-83
2023/08/11 05:28:39;;;;;;;6.77;4.20;;;;;;;21.11;100.00;96728.53;5053258;28;20035;-83
2023/08/11 05:31:04;;;;;;;7.07;3.77;;;;;;;20.56;100.00;96723.63;5054658;28;20125;-83
2023/08/11 05:33:31;;;;;;;5.47;3.80;;;;;;;21.04;100.00;96725.91;5071220;28;20484;-83
2023/08/11 05:35:58;;;;;;;6.17;3.97;;;;;;;21.46;100.00;96730.84;5051215;28;20074;-83
2023/08/11 05:38:24;;;;;;;7.60;4.07;;;;;;;21.78;100.00;96727.13;5061786;28;20371;-83
2023/08/11 05:40:49;;;;;;;6.30;4.03;;;;;;;21.78;100.00;96726.31;5064150;28;20041;-82
2023/08/11 05:43:15;;;;;;;6.63;3.93;;;;;;;21.86;100.00;96720.66;5070007;28;20482;-83
2023/08/11 05:45:43;;;;;;;5.93;3.43;;;;;;;21.24;100.00;96722.31;5069391;28;20028;-82
2023/08/11 05:48:11;;;;;;;6.30;3.47;;;;;;;21.83;100.00;96719.25;5046531;28;20060;-83
2023/08/11 05:50:47;;;;;;;10.63;4.57;;;;;;;22.09;100.00;96725.41;5049267;28;20028;-83
2023/08/11 05:53:12;;;;;;;9.30;3.53;;;;;;;22.63;100.00;96721.19;5059244;28;20391;-84
2023/08/11 05:55:38;;;;;;;6.53;4.00;;;;;;;22.88;100.00;96721.09;5049339;28;20028;-83
2023/08/11 05:58:04;;;;;;;9.93;4.00;;;;;;;23.00;100.00;96718.50;5048508;28;20070;-83
2023/08/11 06:00:48;;;;;;;6.70;3.67;;;;;;;23.46;100.00;96725.13;5063352;28;20421;-83
2023/08/11 06:03:14;;;;;;;7.65;3.47;;;;;;;23.76;100.00;96723.22;5069350;28;20055;-83
2023/08/11 06:05:40;;;;;;;7.95;4.28;;;;;;;24.49;100.00;96725.75;5057903;28;20036;-81
2023/08/11 06:08:06;;;;;;;5.20;3.25;;;;;;;24.30;100.00;96728.53;5061376;28;20020;-81
2023/08/11 06:10:32;;;;;;;7.20;3.60;;;;;;;24.42;100.00;96721.31;5048511;28;20425;-82
2023/08/11 06:12:57;;;;;;;5.15;3.10;;;;;;;23.99;100.00;96719.75;5067646;28;20066;-84
2023/08/11 06:15:40;;;;;;;8.68;3.10;;;;;;;24.37;100.00;96723.84;5068105;28;20029;-81
2023/08/11 06:18:06;;;;;;;7.38;3.08;;;;;;;25.00;100.00;96724.94;5067599;28;20399;-81
2023/08/11 06:20:31;;;;;;;5.90;3.35;;;;;;;25.75;93.10;96729.31;5051102;28;20041;-82
2023/08/11 06:22:57;;;;;;;4.80;2.97;;;;;;;26.30;89.38;96723.22;5069135;28;20028;-82
2023/08/11 06:25:30;;;;;;;7.43;3.28;;;;;;;26.13;90.84;96727.00;5068177;28;20059;-82
2023/08/11 06:28:14;;;;;;;8.60;2.90;;;;;;;27.06;86.64;96724.50;5066902;28;20051;-82
2023/08/11 06:30:50;;;;;;;5.53;2.75;;;;;;;27.35;84.76;96723.25;5071019;28;20036;-82
2023/08/11 06:33:16;;;;;;;6.07;3.35;;;;;;;27.49;87.11;96721.75;5076009;28;20039;-81
2023/08/11 06:35:44;;;;;;;10.00;3.08;;;;;;;27.47;86.84;96731.22;5045020;28;20395;-82
2023/08/11 06:38:32;;;;;;;5.65;2.63;;;;;;;27.63;81.79;96726.75;5060421;28;20047;-82
2023/08/11 06:40:57;;;;;;;6.07;3.22;;;;;;;28.60;79.16;96733.75;5058096;28;20024;-82
2023/08/11 06:43:23;;;;;;;7.07;3.30;;;;;;;28.20;77.80;96728.88;5057494;28;20490;-81
2023/08/11 06:45:49;;;;;;;8.35;3.60;;;;;;;28.56;75.00;96732.66;5072398;28;20496;-81
2023/08/11 06:48:15;;;;;;;6.40;3.00;;;;;;;29.53;69.53;96730.38;5074131;28;20039;-82
2023/08/11 06:50:41;;;;;;;6.72;3.10;;;;;;;29.80;66.37;96730.16;5074153;28;20055;-82
2023/08/11 06:53:06;;;;;;;5.72;3.03;;;;;;;29.47;68.95;96736.03;5051306;28;20097;-81
2023/08/11 06:55:32;;;;;;;5.97;3.42;;;;;;;29.77;67.38;96735.31;5066296;28;20082;-79
2023/08/11 06:57:57;;;;;;;9.35;3.28;;;;;;;31.04;62.80;96722.69;5053269;28;20036;-79
2023/08/11 07:00:23;;;;;;;4.85;2.60;;;;;;;30.41;63.60;96734.78;5056850;28;20021;-79
2023/08/11 07:02:49;;;;;;;4.90;3.00;;;;;;;30.87;62.54;96742.03;5069802;28;20048;-79
2023/08/11 07:05:15;;;;;;;6.47;3.22;;;;;;;30.69;60.06;96733.38;5068185;28;20024;-79
2023/08/11 07:07:40;;;;;;;6.53;3.35;;;;;;;31.01;60.19;96732.19;5052384;28;20017;-79
2023/08/11 07:10:06;;;;;;;5.53;3.15;;;;;;;31.09;59.92;96736.25;5071984;28;20035;-79
2023/08/11 07:12:32;;;;;;;8.90;3.97;;;;;;;31.01;59.82;96734.91;5066588;28;20478;-79
2023/08/11 07:14:57;;;;;;;5.53;3.20;;;;;;;31.36;59.05;96730.44;5057476;28;20461;-79
2023/08/11 07:17:24;;;;;;;5.13;3.00;;;;;;;32.68;55.88;96734.03;5050535;28;20466;-79
2023/08/11 07:19:49;;;;;;;6.07;3.20;;;;;;;32.13;56.89;96737.00;5055695;28;20017;-79
2023/08/11 07:22:21;;;;;;;5.13;2.80;;;;;;;32.18;57.04;96741.56;5070069;28;20032;-78
2023/08/11 07:24:46;;;;;;;5.30;2.67;;;;;;;32.53;55.66;96736.91;5069250;28;20024;-78
2023/08/11 07:27:12;;;;;;;7.65;4.07;;;;;;;32.97;55.15;96736.75;5068502;28;20483;-80
2023/08/11 07:29:37;;;;;;;6.28;3.20;;;;;;;33.53;54.40;96741.47;5059522;28;20386;-78
2023/08/11 07:32:15;;;;;;;6.03;3.15;;;;;;;34.01;52.73;96743.28;5068635;28;20470;-78
2023/08/11 07:34:42;;;;;;;6.90;3.03;;;;;;;34.01;50.90;96741.34;5053716;28;20045;-79
2023/08/11 07:37:08;;;;;;;6.00;3.10;;;;;;;34.45;51.17;96740.03;5055904;28;20032;-79
2023/08/11 07:39:34;;;;;;;4.85;2.80;;;;;;;34.97;48.21;96746.19;5056665;28;20035;-78
2023/08/11 07:42:02;;;;;;;6.43;3.40;;;;;;;34.02;50.33;96742.97;5047443;28;20517;-79
2023/08/11 07:44:33;;;;;;;5.35;3.22;;;;;;;35.00;48.20;96746.69;5049861;28;20012;-78
2023/08/11 07:47:01;;;;;;;4.75;3.10;;;;;;;34.58;48.55;96751.34;5066829;28;20086;-79
2023/08/11 07:49:27;;;;;;;5.30;2.55;;;;;;;34.39;50.40;96752.16;5043832;28;20103;-79
2023/08/11 07:51:53;;;;;;;6.65;4.00;;;;;;;36.58;45.09;96745.88;5055812;28;20028;-79
2023/08/11 07:54:28;;;;;;;4.40;2.72;;;;;;;34.45;48.81;96761.09;5071994;28;20245;-78
2023/08/11 07:56:54;;;;;;;4.78;2.65;;;;;;;36.04;48.12;96751.31;5066465;28;20427;-79
2023/08/11 07:59:19;;;;;;;3.95;2.45;;;;;;;36.68;47.13;96753.81;5071515;28;20126;-80
2023/08/11 08:01:46;;;;;;;5.22;2.92;;;;;;;36.18;43.77;96750.44;5072566;28;20412;-79
2023/08/11 08:04:12;;;;;;;3.92;2.58;;;;;;;37.12;43.92;96757.56;5072573;28;20837;-78
2023/08/11 08:06:45;;;;;;;7.10;4.47;;;;;;;38.13;41.75;96761.13;5068411;28;20048;-79
2023/08/11 08:09:26;;;;;;;7.50;5.20;;;;;;;37.15;42.54;96762.41;5070801;28;20438;-79
2023/08/11 08:11:52;;;;;;;5.35;2.53;;;;;;;37.99;42.12;96757.72;5056024;28;20501;-79
2023/08/11 08:14:18;;;;;;;6.15;3.00;;;;;;;37.72;40.81;96762.38;5054480;28;20033;-79
2023/08/11 08:16:47;;;;;;;6.18;2.80;;;;;;;38.52;40.79;96759.28;5072179;28;20023;-78
2023/08/11 08:19:14;;;;;;;4.90;2.88;;;;;;;36.81;41.52;96772.09;5065173;28;20091;-79
2023/08/11 08:21:53;;;;;;;5.65;3.03;;;;;;;38.57;40.84;96766.56;5068300;28;20389;-79
2023/08/11 08:24:18;;;;;;;4.72;2.72;;;;;;;38.84;39.71;96762.63;5053145;28;20074;-79
2023/08/11 08:26:44;;;;;;;4.60;2.70;;;;;;;38.57;38.70;96770.13;5060064;28;20028;-79
2023/08/11 08:29:13;;;;;;;6.70;3.08;;;;;;;39.66;36.93;96771.41;5071320;28;20028;-79
2023/08/11 08:31:38;;;;;;;4.90;2.88;;;;;;;39.30;36.11;96777.47;5055279;28;20107;-77
2023/08/11 08:34:06;;;;;;;4.47;2.63;;;;;;;39.59;37.01;96771.16;5069491;28;20036;-78
2023/08/11 08:36:32;;;;;;;5.13;2.72;;;;;;;39.03;36.76;96774.00;5071950;28;20028;-78
2023/08/11 08:38:57;;;;;;;6.10;3.28;;;;;;;40.20;35.06;96765.19;5071684;28;20071;-80
2023/08/11 08:41:29;;;;;;;4.10;2.78;;;;;;;40.02;34.58;96773.59;5072316;28;20433;-79
2023/08/11 08:44:04;;;;;;;6.43;2.60;;;;;;;37.56;36.53;96769.50;5066253;28;20024;-79
2023/08/11 08:46:31;;;;;;;5.28;2.75;;;;;;;38.71;36.07;96772.66;5050512;28;20036;-79
2023/08/11 08:49:09;;;;;;;6.18;2.80;;;;;;;37.89;35.88;96774.50;5054924;28;20073;-79
2023/08/11 08:51:37;;;;;;;4.78;2.38;;;;;;;39.54;33.95;96771.31;5048594;28;20020;-79
2023/08/11 08:54:03;;;;;;;4.32;2.47;;;;;;;38.77;34.47;96778.78;5064592;28;20017;-79
2023/08/11 08:56:29;;;;;;;6.22;2.60;;;;;;;38.90;35.08;96777.78;5071160;28;20024;-79
2023/08/11 08:58:55;;;;;;;5.60;2.83;;;;;;;38.35;34.63;96770.28;5051806;28;20386;-79
2023/08/11 09:01:24;;;;;;;3.67;2.33;;;;;;;38.40;33.71;96776.47;5067270;28;20032;-79
2023/08/11 09:03:51;;;;;;;4.28;2.75;;;;;;;38.65;31.31;96772.03;5073516;28;20036;-79
2023/08/11 09:06:20;;;;;;;3.55;2.22;;;;;;;38.20;32.56;96771.63;5053642;28;20021;-79
2023/08/11 09:08:46;;;;;;;4.70;2.30;;;;;;;39.29;33.01;96773.13;5048932;28;20031;-79
2023/08/11 09:11:12;;;;;;;3.67;2.30;;;;;;;39.79;33.72;96772.31;5062126;28;20020;-79
2023/08/11 09:13:38;;;;;;;8.00;2.78;;;;;;;38.57;32.70;96770.13;5072736;28;20493;-79
2023/08/11 09:16:03;;;;;;;6.00;2.58;;;;;;;38.48;31.68;96765.78;5071040;28;20039;-79
2023/08/11 09:18:29;;;;;;;3.35;2.50;;;;;;;39.51;31.07;96761.81;5064423;28;20035;-79
2023/08/11 09:21:14;;;;;;;3.97;2.50;;;;;;;38.02;33.19;96767.25;5062384;28;20021;-82
2023/08/11 09:23:43;;;;;;;7.32;3.00;;;;;;;38.68;32.51;96760.38;5064744;28;20456;-79
2023/08/11 09:26:12;;;;;;;3.97;2.85;;;;;;;38.47;33.14;96759.47;5053966;28;20023;-79
2023/08/11 09:28:40;;;;;;;4.72;2.60;;;;;;;38.51;33.73;96751.38;5066407;28;20031;-79
2023/08/11 09:31:06;;;;;;;3.65;2.40;;;;;;;39.06;32.65;96754.09;5068916;28;20028;-79
2023/08/11 09:33:34;;;;;;;4.35;2.67;;;;;;;39.12;32.38;96760.22;5051600;28;20027;-79
2023/08/11 09:36:01;;;;;;;5.00;3.00;;;;;;;39.23;32.26;96758.69;5064024;28;20020;-79
2023/08/11 09:38:28;;;;;;;4.07;2.38;;;;;;;38.13;34.73;96747.41;5065797;28;20023;-79
2023/08/11 09:40:53;;;;;;;7.32;2.50;;;;;;;38.82;32.36;96756.66;5053793;28;20719;-79
2023/08/11 09:43:30;;;;;;;5.45;3.13;;;;;;;39.01;32.43;96757.06;5070928;28;20119;-79
2023/08/11 09:45:55;;;;;;;3.33;2.35;;;;;;;39.21;32.72;96750.00;5047114;28;20420;-79
2023/08/11 09:48:22;;;;;;;3.63;2.45;;;;;;;38.41;33.59;96749.78;5054261;28;20074;-79
2023/08/11 09:50:50;;;;;;;6.40;2.50;;;;;;;39.47;32.23;96749.03;5073777;28;20111;-79
2023/08/11 09:53:16;;;;;;;5.30;2.63;;;;;;;38.87;32.16;96756.47;5054373;28;20047;-79
2023/08/11 09:55:42;;;;;;;3.67;2.45;;;;;;;38.75;33.02;96753.56;5071306;28;20402;-79
2023/08/11 09:58:13;;;;;;;4.88;3.17;;;;;;;38.29;33.01;96749.63;5049908;28;20049;-78
2023/08/11 10:00:40;;;;;;;4.65;2.55;;;;;;;38.93;32.92;96752.38;5070591;28;20371;-80
2023/08/11 10:03:10;;;;;;;3.85;2.80;;;;;;;37.23;34.22;96747.94;5070453;28;20470;-80
2023/08/11 10:05:42;;;;;;;4.93;3.17;;;;;;;38.47;34.82;96748.50;5047890;28;20085;-79
2023/08/11 10:08:18;;;;;;;4.22;2.58;;;;;;;39.75;34.01;96749.38;5055771;28;20388;-80
2023/08/11 10:10:52;;;;;;;4.93;2.50;;;;;;;38.91;33.37;96749.16;5047767;28;20546;-80
2023/08/11 10:13:23;;;;;;;4.93;2.70;;;;;;;37.83;34.40;96745.59;5059156;28;20070;-80
2023/08/11 10:16:03;;;;;;;4.95;2.63;;;;;;;37.82;35.04;96739.28;5071674;28;20017;-80
2023/08/11 10:18:39;;;;;;;4.72;2.63;;;;;;;38.71;34.40;96739.69;5070218;28;20032;-80
2023/08/11 10:21:25;;;;;;;6.03;2.30;;;;;;;38.56;35.44;96749.25;5071021;28;20432;-80
2023/08/11 10:23:54;;;;;;;3.35;2.47;;;;;;;38.99;34.57;96750.25;5054223;28;20025;-80
2023/08/11 10:26:21;;;;;;;3.95;2.75;;;;;;;39.57;33.48;96743.97;5054348;28;20074;-80
2023/08/11 10:28:48;;;;;;;5.32;2.72;;;;;;;39.34;33.80;96740.72;5057929;28;20105;-80
2023/08/11 10:31:13;;;;;;;3.42;2.22;;;;;;;40.37;33.06;96736.66;5048204;28;20028;-80
2023/08/11 10:33:39;;;;;;;5.55;2.55;;;;;;;39.42;33.44;96744.53;5070906;28;20025;-80
2023/08/11 10:36:15;;;;;;;4.70;3.10;;;;;;;40.16;32.16;96745.78;5049249;28;20029;-79
2023/08/11 10:38:41;;;;;;;5.47;2.55;;;;;;;39.77;32.11;96742.34;5050147;28;20384;-80
2023/08/11 10:41:09;;;;;;;4.57;2.83;;;;;;;39.66;32.64;96741.13;5051426;28;20031;-80
2023/08/11 10:43:37;;;;;;;3.90;2.40;;;;;;;40.26;33.35;96741.81;5067062;28;20028;-80
2023/08/11 10:46:22;;;;;;;3.83;2.70;;;;;;;40.08;32.29;96743.91;5067919;28;20073;-80
2023/08/11 10:48:52;;;;;;;4.32;2.47;;;;;;;38.51;34.26;96746.69;5048219;28;20017;-80
2023/08/11 10:51:39;;;;;;;6.13;3.00;;;;;;;38.92;34.39;96750.78;5062858;28;20056;-80
2023/08/11 10:54:11;;;;;;;4.82;3.80;;;;;;;40.47;32.81;96747.25;5070292;28;20032;-80
2023/08/11 10:56:44;;;;;;;4.65;2.92;;;;;;;40.31;32.70;96744.31;5053968;28;20482;-80
2023/08/11 10:59:29;;;;;;;4.22;2.95;;;;;;;38.67;32.77;96745.03;5066649;28;20083;-80
2023/08/11 11:01:55;;;;;;;4.90;2.50;;;;;;;39.79;32.36;96745.59;5063461;28;20025;-81
2023/08/11 11:04:23;;;;;;;7.45;2.85;;;;;;;40.18;33.84;96734.44;5069224;28;20028;-81
2023/08/11 11:06:50;;;;;;;3.30;2.42;;;;;;;40.83;31.33;96743.78;5071322;28;20016;-80
2023/08/11 11:09:17;;;;;;;5.57;2.50;;;;;;;40.43;32.89;96741.63;5051617;28;20048;-80
2023/08/11 11:11:44;;;;;;;4.00;2.30;;;;;;;40.22;32.40;96738.13;5063515;28;20478;-80
2023/08/11 11:14:11;;;;;;;4.55;2.40;;;;;;;40.02;33.38;96737.00;5070716;28;20032;-80
2023/08/11 11:16:36;;;;;;;4.63;3.13;;;;;;;40.65;31.67;96732.16;5070337;28;20020;-80
2023/08/11 11:19:04;;;;;;;4.72;2.50;;;;;;;40.62;31.89;96734.81;5070940;28;20120;-80
2023/08/11 11:21:34;;;;;;;3.67;2.53;;;;;;;40.46;33.23;96735.44;5056965;28;20111;-81
2023/08/11 11:24:00;;;;;;;6.65;2.97;;;;;;;40.43;33.65;96735.31;5056949;28;20505;-81
2023/08/11 11:26:27;;;;;;;5.22;2.67;;;;;;;40.36;33.43;96735.88;5072466;28;20025;-80
2023/08/11 11:28:55;;;;;;;4.80;2.42;;;;;;;39.17;32.79;96740.78;5072853;28;20378;-80
2023/08/11 11:31:23;;;;;;;5.53;2.60;;;;;;;39.47;32.70;96741.63;5057901;28;20020;-80
2023/08/11 11:33:50;;;;;;;3.47;2.40;;;;;;;39.78;32.72;96737.69;5070906;28;20028;-80